createdAt,value
2023-03-11T00:01:07.195Z,-0.20
2023-03-11T00:03:33.855Z,-0.20
2023-03-11T00:06:02.089Z,-0.20
2023-03-11T00:08:28.908Z,-0.20
2023-03-11T00:11:01.495Z,-0.20
2023-03-11T00:13:29.642Z,-0.20
2023-03-11T00:15:56.751Z,-0.20
2023-03-11T00:18:26.975Z,-0.30
2023-03-11T00:20:55.787Z,-0.20
2023-03-11T00:23:22.879Z,-0.20
2023-03-11T00:25:49.686Z,-0.30
2023-03-11T00:28:16.928Z,-0.30
2023-03-11T00:30:46.428Z,-0.30
2023-03-11T00:33:15.154Z,-0.30
2023-03-11T00:35:43.319Z,-0.30
2023-03-11T00:38:15.173Z,-0.30
2023-03-11T00:40:45.866Z,-0.30
2023-03-11T00:43:12.834Z,-0.30
2023-03-11T00:45:40.262Z,-0.30
2023-03-11T00:48:07.849Z,-0.30
2023-03-11T00:50:36.459Z,-0.30
2023-03-11T00:53:04.368Z,-0.30
2023-03-11T00:55:33.394Z,-0.30
2023-03-11T00:58:05.145Z,-0.30
2023-03-11T01:00:39.333Z,-0.30
2023-03-11T01:03:06.357Z,-0.30
2023-03-11T01:05:34.674Z,-0.30
2023-03-11T01:08:02.753Z,-0.30
2023-03-11T01:10:31.511Z,-0.30
2023-03-11T01:12:58.444Z,-0.30
2023-03-11T01:15:31.586Z,-0.30
2023-03-11T01:17:59.300Z,-0.30
2023-03-11T01:20:26.436Z,-0.30
2023-03-11T01:22:53.419Z,-0.30
2023-03-11T01:25:22.153Z,-0.30
2023-03-11T01:27:50.424Z,-0.30
2023-03-11T01:30:19.928Z,-0.30
2023-03-11T01:32:47.033Z,-0.30
2023-03-11T01:35:15.891Z,-0.30
2023-03-11T01:37:43.285Z,-0.30
2023-03-11T01:40:17.051Z,-0.30
2023-03-11T01:42:43.909Z,-0.30
2023-03-11T01:45:34.098Z,-0.30
2023-03-11T01:48:01.528Z,-0.30
2023-03-11T01:50:34.632Z,-0.30
2023-03-11T01:53:02.081Z,-0.30
2023-03-11T01:55:30.128Z,-0.30
2023-03-11T01:57:57.137Z,-0.30
2023-03-11T02:00:24.146Z,-0.30
2023-03-11T02:02:53.477Z,-0.30
2023-03-11T02:05:25.187Z,-0.30
2023-03-11T02:07:54.923Z,-0.30
2023-03-11T02:10:25.502Z,-0.30
2023-03-11T02:12:54.316Z,-0.30
2023-03-11T02:15:27.380Z,-0.20
2023-03-11T02:17:56.323Z,-0.30
2023-03-11T02:20:38.169Z,-0.30
2023-03-11T02:23:13.740Z,-0.30
2023-03-11T02:25:46.847Z,-0.30
2023-03-11T02:28:16.702Z,-0.30
2023-03-11T02:30:44.400Z,-0.30
2023-03-11T02:33:13.186Z,-0.30
2023-03-11T02:35:40.432Z,-0.30
2023-03-11T02:38:07.653Z,-0.30
2023-03-11T02:40:44.389Z,-0.30
2023-03-11T02:43:14.816Z,-0.30
2023-03-11T02:45:45.375Z,-0.30
2023-03-11T02:48:14.404Z,-0.40
2023-03-11T02:50:41.643Z,-0.40
2023-03-11T02:53:09.951Z,-0.30
2023-03-11T02:55:37.079Z,-0.40
2023-03-11T02:58:03.815Z,-0.30
2023-03-11T03:00:30.736Z,-0.30
2023-03-11T03:03:02.757Z,-0.30
2023-03-11T03:05:30.320Z,-0.40
2023-03-11T03:07:58.527Z,-0.30
2023-03-11T03:10:25.473Z,-0.30
2023-03-11T03:12:52.231Z,-0.40
2023-03-11T03:15:19.077Z,-0.30
2023-03-11T03:17:46.896Z,-0.30
2023-03-11T03:20:14.788Z,-0.30
2023-03-11T03:22:46.918Z,-0.30
2023-03-11T03:25:16.860Z,-0.40
2023-03-11T03:27:43.655Z,-0.30
2023-03-11T03:30:11.165Z,-0.20
2023-03-11T03:32:39.106Z,-0.30
2023-03-11T03:35:09.390Z,-0.20
2023-03-11T03:37:56.572Z,-0.20
2023-03-11T03:40:23.449Z,-0.20
2023-03-11T03:42:51.883Z,-0.20
2023-03-11T03:45:19.462Z,-0.20
2023-03-11T03:47:47.221Z,-0.30
2023-03-11T03:50:14.532Z,-0.20
2023-03-11T03:52:44.494Z,-0.20
2023-03-11T03:55:11.586Z,-0.20
2023-03-11T03:57:39.343Z,-0.20
2023-03-11T04:00:09.555Z,-0.20
2023-03-11T04:02:43.786Z,-0.20
2023-03-11T04:05:19.243Z,-0.20
2023-03-11T04:07:46.494Z,-0.30
2023-03-11T04:10:14.444Z,-0.20
2023-03-11T04:12:42.050Z,-0.30
2023-03-11T04:15:09.454Z,-0.30
2023-03-11T04:17:37.749Z,-0.30
2023-03-11T04:20:09.777Z,-0.30
2023-03-11T04:22:37.127Z,-0.30
2023-03-11T04:25:05.458Z,-0.30
2023-03-11T04:27:33.242Z,-0.30
2023-03-11T04:30:02.751Z,-0.40
2023-03-11T04:32:31.064Z,-0.30
2023-03-11T04:34:58.692Z,-0.30
2023-03-11T04:37:29.362Z,-0.30
2023-03-11T04:39:56.703Z,-0.40
2023-03-11T04:42:24.016Z,-0.40
2023-03-11T04:44:50.950Z,-0.30
2023-03-11T04:47:19.035Z,-0.40
2023-03-11T04:49:46.021Z,-0.40
2023-03-11T04:52:12.936Z,-0.40
2023-03-11T04:54:40.288Z,-0.40
2023-03-11T04:57:07.158Z,-0.40
2023-03-11T04:59:35.125Z,-0.30
2023-03-11T05:02:02.599Z,-0.40
2023-03-11T05:04:30.661Z,-0.40
2023-03-11T05:06:57.469Z,-0.40
2023-03-11T05:09:25.697Z,-0.40
2023-03-11T05:11:53.736Z,-0.40
2023-03-11T05:14:21.717Z,-0.40
2023-03-11T05:16:49.652Z,-0.40
2023-03-11T05:19:32.243Z,-0.40
2023-03-11T05:22:03.317Z,-0.40
2023-03-11T05:24:31.084Z,-0.40
2023-03-11T05:26:58.232Z,-0.40
2023-03-11T05:29:26.104Z,-0.40
2023-03-11T05:31:54.097Z,-0.40
2023-03-11T05:34:22.321Z,-0.50
2023-03-11T05:36:49.368Z,-0.50
2023-03-11T05:39:17.211Z,-0.50
2023-03-11T05:41:44.314Z,-0.50
2023-03-11T05:44:11.381Z,-0.50
2023-03-11T05:46:38.567Z,-0.50
2023-03-11T05:49:06.957Z,-0.40
2023-03-11T05:51:33.902Z,-0.50
2023-03-11T05:54:00.752Z,-0.50
2023-03-11T05:56:36.010Z,-0.50
2023-03-11T05:59:03.508Z,-0.50
2023-03-11T06:01:34.130Z,-0.50
2023-03-11T06:04:01.466Z,-0.50
2023-03-11T06:06:29.264Z,-0.50
2023-03-11T06:08:56.532Z,-0.50
2023-03-11T06:11:25.781Z,-0.50
2023-03-11T06:13:56.971Z,-0.50
2023-03-11T06:16:25.878Z,-0.50
2023-03-11T06:18:54.364Z,-0.40
2023-03-11T06:21:23.869Z,-0.50
2023-03-11T06:23:50.818Z,-0.50
2023-03-11T06:26:20.343Z,-0.50
2023-03-11T06:28:48.419Z,-0.40
2023-03-11T06:31:27.222Z,-0.40
2023-03-11T06:33:59.335Z,-0.40
2023-03-11T06:36:27.008Z,-0.50
2023-03-11T06:38:54.512Z,-0.40
2023-03-11T06:41:24.150Z,-0.40
2023-03-11T06:43:51.136Z,-0.40
2023-03-11T06:46:21.374Z,-0.40
2023-03-11T06:48:52.177Z,-0.40
2023-03-11T06:51:21.577Z,-0.40
2023-03-11T06:53:50.256Z,-0.40
2023-03-11T06:56:18.543Z,-0.40
2023-03-11T06:58:50.153Z,-0.30
2023-03-11T07:01:22.367Z,-0.30
2023-03-11T07:03:51.003Z,-0.30
2023-03-11T07:06:21.278Z,-0.30
2023-03-11T07:08:49.568Z,-0.30
2023-03-11T07:11:22.149Z,-0.30
2023-03-11T07:13:51.644Z,-0.20
2023-03-11T07:16:21.167Z,-0.20
2023-03-11T07:18:51.403Z,-0.20
2023-03-11T07:21:21.208Z,-0.10
2023-03-11T07:23:51.630Z,-0.10
2023-03-11T07:26:18.736Z,0.00
2023-03-11T07:28:45.720Z,0.00
2023-03-11T07:31:19.781Z,0.00
2023-03-11T07:33:47.197Z,0.00
2023-03-11T07:36:16.465Z,0.00
2023-03-11T07:38:44.051Z,0.00
2023-03-11T07:41:11.974Z,0.00
2023-03-11T07:43:39.671Z,0.00
2023-03-11T07:46:09.436Z,0.10
2023-03-11T07:48:37.317Z,0.00
2023-03-11T07:51:06.442Z,0.10
2023-03-11T07:53:33.690Z,0.10
2023-03-11T07:56:01.678Z,0.00
2023-03-11T07:58:29.035Z,0.20
2023-03-11T08:00:57.006Z,0.30
2023-03-11T08:03:24.721Z,0.40
2023-03-11T08:05:52.211Z,0.50
2023-03-11T08:08:18.986Z,0.60
2023-03-11T08:10:45.685Z,0.60
2023-03-11T08:13:12.398Z,0.60
2023-03-11T08:15:39.301Z,0.60
2023-03-11T08:18:06.221Z,0.60
2023-03-11T08:20:33.014Z,0.60
2023-03-11T08:22:59.864Z,0.80
2023-03-11T08:25:26.951Z,0.90
2023-03-11T08:27:53.684Z,1.00
2023-03-11T08:30:20.776Z,1.00
2023-03-11T08:32:49.033Z,1.00
2023-03-11T08:35:16.681Z,1.00
2023-03-11T08:37:43.489Z,0.80
2023-03-11T08:40:11.163Z,0.60
2023-03-11T08:42:37.928Z,0.60
2023-03-11T08:45:05.234Z,0.70
2023-03-11T08:47:36.109Z,0.70
2023-03-11T08:50:07.739Z,0.70
2023-03-11T08:52:34.494Z,0.80
2023-03-11T08:55:01.494Z,1.00
2023-03-11T08:57:28.188Z,1.00
2023-03-11T08:59:54.863Z,1.00
2023-03-11T09:02:21.567Z,1.10
2023-03-11T09:04:48.262Z,1.00
2023-03-11T09:07:15.174Z,1.00
2023-03-11T09:09:41.898Z,0.80
2023-03-11T09:12:09.738Z,0.70
2023-03-11T09:14:39.464Z,0.60
2023-03-11T09:17:06.778Z,0.60
2023-03-11T09:19:34.110Z,0.50
2023-03-11T09:22:02.017Z,0.50
2023-03-11T09:24:29.618Z,0.50
2023-03-11T09:26:56.326Z,0.50
2023-03-11T09:29:23.049Z,0.60
2023-03-11T09:31:49.860Z,0.60
2023-03-11T09:34:16.621Z,0.60
2023-03-11T09:36:44.569Z,0.60
2023-03-11T09:39:11.458Z,0.70
2023-03-11T09:41:58.702Z,0.80
2023-03-11T09:44:42.423Z,0.80
2023-03-11T09:47:32.404Z,0.90
2023-03-11T09:50:22.131Z,1.00
2023-03-11T09:52:58.934Z,1.00
2023-03-11T09:55:39.922Z,1.10
2023-03-11T09:58:15.440Z,1.10
2023-03-11T10:00:42.673Z,1.10
2023-03-11T10:03:27.171Z,1.20
2023-03-11T10:06:01.277Z,1.10
2023-03-11T10:08:53.449Z,1.10
2023-03-11T10:11:45.331Z,1.10
2023-03-11T10:14:39.775Z,1.20
2023-03-11T10:17:17.578Z,1.20
2023-03-11T10:19:57.590Z,1.20
2023-03-11T10:22:39.098Z,1.40
2023-03-11T10:25:14.567Z,1.40
2023-03-11T10:27:49.002Z,1.40
2023-03-11T10:30:27.562Z,1.50
2023-03-11T10:33:07.552Z,1.60
2023-03-11T10:35:41.924Z,1.70
2023-03-11T10:38:14.266Z,1.70
2023-03-11T10:40:44.372Z,1.70
2023-03-11T10:43:25.573Z,1.80
2023-03-11T10:45:53.358Z,1.70
2023-03-11T10:48:21.825Z,1.80
2023-03-11T10:50:55.182Z,1.80
2023-03-11T10:53:21.966Z,1.80
2023-03-11T10:55:54.433Z,1.90
2023-03-11T10:58:24.540Z,1.80
2023-03-11T11:01:15.668Z,1.70
2023-03-11T11:03:45.272Z,1.70
2023-03-11T11:06:26.540Z,1.70
2023-03-11T11:09:21.824Z,1.80
2023-03-11T11:12:11.765Z,1.80
2023-03-11T11:14:52.678Z,1.90
2023-03-11T11:17:32.484Z,1.90
2023-03-11T11:20:01.305Z,1.90
2023-03-11T11:22:28.888Z,1.90
2023-03-11T11:24:56.248Z,2.00
2023-03-11T11:27:26.341Z,2.00
2023-03-11T11:30:08.840Z,2.00
2023-03-11T11:32:36.354Z,2.10
2023-03-11T11:35:12.748Z,2.10
2023-03-11T11:37:43.311Z,2.20
2023-03-11T11:40:16.547Z,2.30
2023-03-11T11:42:52.826Z,2.30
2023-03-11T11:45:38.391Z,2.30
2023-03-11T11:48:44.281Z,2.40
2023-03-11T11:51:21.320Z,2.50
2023-03-11T11:54:17.355Z,2.40
2023-03-11T11:56:45.589Z,2.40
2023-03-11T11:59:18.832Z,2.40
2023-03-11T12:02:15.706Z,2.40
2023-03-11T12:04:47.079Z,2.40
2023-03-11T12:07:29.921Z,2.50
2023-03-11T12:10:31.503Z,2.50
2023-03-11T12:13:10.939Z,2.50
2023-03-11T12:15:50.642Z,2.50
2023-03-11T12:18:30.397Z,2.50
2023-03-11T12:20:58.157Z,2.70
2023-03-11T12:23:44.812Z,2.70
2023-03-11T12:26:22.659Z,2.90
2023-03-11T12:29:01.181Z,3.00
2023-03-11T12:31:31.982Z,3.20
2023-03-11T12:34:03.080Z,3.20
2023-03-11T12:36:34.054Z,3.30
2023-03-11T12:39:05.609Z,3.50
2023-03-11T12:41:42.857Z,3.50
2023-03-11T12:44:39.705Z,3.50
2023-03-11T12:47:12.294Z,3.40
2023-03-11T12:49:44.794Z,3.50
2023-03-11T12:52:11.658Z,3.50
2023-03-11T12:54:49.419Z,3.50
2023-03-11T12:57:16.362Z,3.60
2023-03-11T13:00:08.040Z,3.70
2023-03-11T13:02:56.530Z,3.70
2023-03-11T13:05:57.275Z,3.90
2023-03-11T13:08:25.453Z,4.00
2023-03-11T13:10:54.066Z,3.70
2023-03-11T13:13:35.941Z,3.50
2023-03-11T13:16:15.237Z,3.60
2023-03-11T13:18:44.188Z,3.70
2023-03-11T13:21:34.638Z,3.80
2023-03-11T13:24:20.039Z,3.90
2023-03-11T13:27:03.320Z,3.90
2023-03-11T13:29:52.669Z,3.90
2023-03-11T13:32:47.616Z,3.90
2023-03-11T13:35:39.410Z,3.90
2023-03-11T13:38:22.141Z,3.90
2023-03-11T13:40:51.785Z,3.90
2023-03-11T13:43:23.442Z,4.10
2023-03-11T13:46:13.261Z,4.00
2023-03-11T13:48:45.928Z,4.00
2023-03-11T13:51:27.931Z,3.90
2023-03-11T13:54:20.073Z,4.00
2023-03-11T13:56:59.703Z,4.10
2023-03-11T13:59:29.565Z,4.10
2023-03-11T14:02:14.018Z,4.00
2023-03-11T14:04:47.902Z,3.90
2023-03-11T14:07:29.686Z,4.00
2023-03-11T14:10:12.225Z,4.10
2023-03-11T14:12:39.424Z,4.20
2023-03-11T14:15:24.325Z,4.30
2023-03-11T14:17:52.951Z,4.20
2023-03-11T14:20:25.237Z,4.20
2023-03-11T14:22:54.882Z,4.20
2023-03-11T14:25:26.313Z,4.30
2023-03-11T14:28:04.686Z,4.50
2023-03-11T14:30:34.124Z,4.50
2023-03-11T14:33:06.639Z,4.30
2023-03-11T14:35:34.161Z,4.30
2023-03-11T14:38:01.206Z,4.10
2023-03-11T14:40:31.181Z,4.00
2023-03-11T14:43:04.856Z,4.10
2023-03-11T14:45:52.626Z,4.00
2023-03-11T14:48:37.197Z,4.10
2023-03-11T14:51:07.347Z,4.10
2023-03-11T14:53:39.160Z,4.10
2023-03-11T14:56:13.010Z,4.20
2023-03-11T14:59:08.040Z,4.10
2023-03-11T15:01:41.012Z,4.20
2023-03-11T15:04:17.182Z,4.10
2023-03-11T15:06:46.415Z,4.10
2023-03-11T15:09:15.547Z,4.00
2023-03-11T15:11:59.920Z,3.90
2023-03-11T15:14:48.086Z,3.70
2023-03-11T15:17:37.032Z,3.60
2023-03-11T15:20:35.312Z,3.50
2023-03-11T15:23:04.523Z,3.50
2023-03-11T15:25:37.277Z,3.50
2023-03-11T15:28:29.939Z,3.50
2023-03-11T15:31:15.764Z,3.50
2023-03-11T15:33:43.148Z,3.50
2023-03-11T15:36:29.218Z,3.40
2023-03-11T15:39:14.547Z,3.30
2023-03-11T15:41:58.182Z,3.30
2023-03-11T15:44:29.947Z,3.30
2023-03-11T15:46:59.190Z,3.10
2023-03-11T15:49:26.791Z,3.10
2023-03-11T15:51:57.406Z,3.10
2023-03-11T15:54:24.112Z,3.10
2023-03-11T15:56:51.125Z,3.10
2023-03-11T15:59:18.203Z,3.10
2023-03-11T16:01:46.226Z,3.10
2023-03-11T16:04:18.496Z,3.20
2023-03-11T16:06:49.582Z,3.10
2023-03-11T16:09:21.183Z,3.10
2023-03-11T16:11:47.919Z,3.10
2023-03-11T16:14:20.290Z,3.20
2023-03-11T16:16:47.484Z,3.10
2023-03-11T16:19:14.260Z,3.10
2023-03-11T16:21:49.350Z,3.10
2023-03-11T16:24:22.478Z,3.10
2023-03-11T16:26:52.063Z,3.10
2023-03-11T16:29:20.014Z,3.00
2023-03-11T16:31:47.068Z,3.10
2023-03-11T16:34:13.988Z,3.00
2023-03-11T16:36:40.929Z,3.00
2023-03-11T16:39:07.741Z,3.00
2023-03-11T16:41:42.666Z,2.90
2023-03-11T16:44:10.084Z,2.90
2023-03-11T16:46:36.946Z,2.90
2023-03-11T16:49:03.893Z,2.90
2023-03-11T16:51:31.118Z,2.80
2023-03-11T16:53:58.033Z,2.80
2023-03-11T16:56:24.872Z,2.80
2023-03-11T16:58:51.665Z,2.70
2023-03-11T17:01:21.735Z,2.70
2023-03-11T17:03:49.850Z,2.60
2023-03-11T17:06:20.933Z,2.50
2023-03-11T17:08:49.550Z,2.30
2023-03-11T17:11:24.610Z,2.40
2023-03-11T17:13:51.400Z,2.30
2023-03-11T17:16:18.261Z,2.30
2023-03-11T17:18:44.979Z,2.30
2023-03-11T17:21:14.341Z,2.20
2023-03-11T17:23:41.860Z,2.10
2023-03-11T17:26:14.504Z,2.20
2023-03-11T17:28:42.022Z,2.10
2023-03-11T17:31:16.266Z,2.00
2023-03-11T17:33:43.652Z,1.90
2023-03-11T17:36:14.494Z,1.80
2023-03-11T17:38:41.610Z,1.70
2023-03-11T17:41:10.074Z,1.60
2023-03-11T17:43:36.832Z,1.70
2023-03-11T17:46:07.877Z,1.70
2023-03-11T17:48:34.818Z,1.60
2023-03-11T17:51:06.226Z,1.70
2023-03-11T17:53:33.425Z,1.70
2023-03-11T17:56:00.236Z,1.70
2023-03-11T17:58:27.004Z,1.50
2023-03-11T18:00:53.766Z,1.40
2023-03-11T18:03:20.435Z,1.40
2023-03-11T18:05:59.161Z,1.10
2023-03-11T18:08:26.037Z,1.20
2023-03-11T18:10:55.582Z,1.00
2023-03-11T18:13:22.273Z,1.00
2023-03-11T18:15:57.512Z,1.00
2023-03-11T18:18:24.272Z,0.80
2023-03-11T18:20:51.056Z,0.60
2023-03-11T18:23:18.179Z,0.60
2023-03-11T18:25:49.461Z,0.50
2023-03-11T18:28:16.203Z,0.50
2023-03-11T18:30:42.906Z,0.40
2023-03-11T18:33:09.710Z,0.40
2023-03-11T18:35:36.638Z,0.40
2023-03-11T18:38:03.950Z,0.30
2023-03-11T18:40:31.021Z,0.30
2023-03-11T18:42:58.091Z,0.30
2023-03-11T18:45:25.128Z,0.30
2023-03-11T18:47:52.049Z,0.30
2023-03-11T18:50:20.069Z,0.20
2023-03-11T18:52:47.803Z,0.00
2023-03-11T18:55:14.913Z,0.00
2023-03-11T18:57:43.260Z,0.00
2023-03-11T19:00:10.622Z,0.00
2023-03-11T19:02:37.647Z,0.00
2023-03-11T19:05:05.496Z,-0.10
2023-03-11T19:07:32.282Z,-0.10
2023-03-11T19:09:59.072Z,-0.10
2023-03-11T19:12:29.203Z,-0.10
2023-03-11T19:14:55.939Z,-0.10
2023-03-11T19:17:22.643Z,-0.20
2023-03-11T19:19:49.484Z,-0.30
2023-03-11T19:22:17.243Z,-0.30
2023-03-11T19:24:43.948Z,-0.30
2023-03-11T19:27:10.685Z,-0.40
2023-03-11T19:29:37.463Z,-0.40
2023-03-11T19:32:04.488Z,-0.40
2023-03-11T19:34:31.444Z,-0.50
2023-03-11T19:36:58.629Z,-0.50
2023-03-11T19:39:25.529Z,-0.60
2023-03-11T19:41:52.361Z,-0.60
2023-03-11T19:44:19.103Z,-0.70
2023-03-11T19:46:45.903Z,-0.70
2023-03-11T19:49:12.886Z,-0.70
2023-03-11T19:51:49.664Z,-0.70
2023-03-11T19:54:17.410Z,-0.70
2023-03-11T19:56:44.364Z,-0.70
2023-03-11T19:59:11.426Z,-0.70
2023-03-11T20:01:38.464Z,-0.70
2023-03-11T20:04:05.446Z,-0.70
2023-03-11T20:06:32.288Z,-0.70
2023-03-11T20:08:59.032Z,-0.70
2023-03-11T20:11:26.068Z,-0.70
2023-03-11T20:13:52.837Z,-0.70
2023-03-11T20:16:19.817Z,-0.80
2023-03-11T20:18:50.942Z,-0.90
2023-03-11T20:21:18.747Z,-0.90
2023-03-11T20:23:45.610Z,-0.90
2023-03-11T20:26:14.528Z,-0.90
2023-03-11T20:28:41.453Z,-0.90
2023-03-11T20:31:14.676Z,-0.90
2023-03-11T20:33:41.501Z,-0.90
2023-03-11T20:36:11.468Z,-0.90
2023-03-11T20:38:38.602Z,-0.90
2023-03-11T20:41:07.994Z,-0.90
2023-03-11T20:43:36.201Z,-0.90
2023-03-11T20:46:04.238Z,-0.90
2023-03-11T20:48:31.311Z,-0.90
2023-03-11T20:51:06.715Z,-0.90
2023-03-11T20:53:34.120Z,-1.00
2023-03-11T20:56:08.244Z,-1.00
2023-03-11T20:58:36.232Z,-1.00
2023-03-11T21:01:14.160Z,-1.10
2023-03-11T21:03:41.391Z,-1.10
2023-03-11T21:06:19.966Z,-1.10
2023-03-11T21:08:47.440Z,-1.10
2023-03-11T21:11:15.301Z,-1.10
2023-03-11T21:13:42.165Z,-1.10
2023-03-11T21:16:09.584Z,-1.10
2023-03-11T21:18:36.693Z,-1.10
2023-03-11T21:21:04.242Z,-1.00
2023-03-11T21:23:31.172Z,-1.10
2023-03-11T21:26:02.855Z,-1.10
2023-03-11T21:28:30.325Z,-1.10
2023-03-11T21:31:03.824Z,-1.10
2023-03-11T21:33:31.714Z,-1.00
2023-03-11T21:36:00.921Z,-0.90
2023-03-11T21:38:28.353Z,-0.90
2023-03-11T21:41:14.479Z,-1.00
2023-03-11T21:43:42.451Z,-1.00
2023-03-11T21:46:12.570Z,-1.10
2023-03-11T21:48:39.489Z,-1.10
2023-03-11T21:51:06.946Z,-1.10
2023-03-11T21:53:33.775Z,-1.10
2023-03-11T21:56:01.632Z,-1.20
2023-03-11T21:58:28.406Z,-1.30
2023-03-11T22:00:55.317Z,-1.30
2023-03-11T22:03:22.515Z,-1.30
2023-03-11T22:05:55.051Z,-1.30
2023-03-11T22:08:21.741Z,-1.40
2023-03-11T22:10:48.462Z,-1.30
2023-03-11T22:13:15.226Z,-1.40
2023-03-11T22:15:42.104Z,-1.50
2023-03-11T22:18:09.271Z,-1.50
2023-03-11T22:20:36.654Z,-1.50
2023-03-11T22:23:04.220Z,-1.60
2023-03-11T22:25:30.955Z,-1.60
2023-03-11T22:27:57.898Z,-1.70
2023-03-11T22:30:24.791Z,-1.60
2023-03-11T22:32:51.904Z,-1.60
2023-03-11T22:35:18.953Z,-1.70
2023-03-11T22:37:45.701Z,-1.70
2023-03-11T22:40:12.834Z,-1.80
2023-03-11T22:42:39.697Z,-1.70
2023-03-11T22:45:07.110Z,-1.70
2023-03-11T22:47:33.871Z,-1.80
2023-03-11T22:50:00.632Z,-1.80
2023-03-11T22:52:27.313Z,-1.70
2023-03-11T22:54:54.165Z,-1.70
2023-03-11T22:57:20.948Z,-1.80
2023-03-11T22:59:47.648Z,-1.80
2023-03-11T23:02:14.356Z,-1.80
2023-03-11T23:04:44.591Z,-1.80
2023-03-11T23:07:11.702Z,-1.80
2023-03-11T23:09:38.608Z,-1.80
2023-03-11T23:12:06.919Z,-1.80
2023-03-11T23:14:44.673Z,-1.80
2023-03-11T23:17:12.580Z,-1.80
2023-03-11T23:19:39.658Z,-1.80
2023-03-11T23:22:07.040Z,-1.80
2023-03-11T23:24:34.245Z,-1.80
2023-03-11T23:27:04.572Z,-1.80
2023-03-11T23:29:32.030Z,-1.80
2023-03-11T23:31:58.829Z,-1.80
2023-03-11T23:34:25.583Z,-1.80
2023-03-11T23:36:52.627Z,-1.80
2023-03-11T23:39:19.375Z,-1.80
2023-03-11T23:41:46.075Z,-1.90
2023-03-11T23:44:14.341Z,-1.90
2023-03-11T23:46:41.414Z,-1.90
2023-03-11T23:49:08.156Z,-1.90
2023-03-11T23:51:34.977Z,-1.90
2023-03-11T23:54:01.752Z,-1.90
2023-03-11T23:56:28.450Z,-2.00
2023-03-11T23:58:55.159Z,-2.10
